createdAt,value
2019-06-01T00:01:17.975Z,74.74
2019-06-01T00:03:49.148Z,74.81
2019-06-01T00:06:18.806Z,74.95
2019-06-01T00:08:49.280Z,75.35
2019-06-01T00:11:19.066Z,75.12
2019-06-01T00:13:49.690Z,75.33
2019-06-01T00:16:19.413Z,75.51
2019-06-01T00:18:50.365Z,75.33
2019-06-01T00:21:20.179Z,75.13
2019-06-01T00:23:51.003Z,75.14
2019-06-01T00:26:20.653Z,74.94
2019-06-01T00:28:50.284Z,74.98
2019-06-01T00:31:21.040Z,74.93
2019-06-01T00:33:51.761Z,74.94
2019-06-01T00:36:21.517Z,74.87
2019-06-01T00:38:52.038Z,74.83
2019-06-01T00:41:22.351Z,74.83
2019-06-01T00:43:52.498Z,74.88
2019-06-01T00:46:22.230Z,74.94
2019-06-01T00:48:52.231Z,75.08
2019-06-01T00:51:21.865Z,75.20
2019-06-01T00:53:51.995Z,75.16
2019-06-01T00:56:21.754Z,75.31
2019-06-01T00:58:51.941Z,75.21
2019-06-01T01:01:21.912Z,75.21
2019-06-01T01:03:52.369Z,75.11
2019-06-01T01:06:23.261Z,75.25
2019-06-01T01:08:53.076Z,75.25
2019-06-01T01:11:22.878Z,75.05
2019-06-01T01:13:53.792Z,75.08
2019-06-01T01:16:23.590Z,75.07
2019-06-01T01:18:53.862Z,75.28
2019-06-01T01:21:23.560Z,75.37
2019-06-01T01:23:54.670Z,75.47
2019-06-01T01:26:24.420Z,75.49
2019-06-01T01:28:54.931Z,75.55
2019-06-01T01:31:24.660Z,75.62
2019-06-01T01:33:55.431Z,75.51
2019-06-01T01:36:25.234Z,75.83
2019-06-01T01:38:56.212Z,75.60
2019-06-01T01:41:26.021Z,75.52
2019-06-01T01:43:56.582Z,75.37
2019-06-01T01:46:26.288Z,75.49
2019-06-01T01:48:56.226Z,75.64
2019-06-01T01:51:27.517Z,75.82
2019-06-01T01:53:58.812Z,75.74
2019-06-01T01:56:28.574Z,75.77
2019-06-01T01:58:58.476Z,75.81
2019-06-01T02:01:28.142Z,75.83
2019-06-01T02:03:58.988Z,75.92
2019-06-01T02:06:29.498Z,75.90
2019-06-01T02:08:59.448Z,75.92
2019-06-01T02:11:30.641Z,75.90
2019-06-01T02:14:00.310Z,76.02
2019-06-01T02:16:29.943Z,76.06
2019-06-01T02:19:00.563Z,76.23
2019-06-01T02:21:30.345Z,76.40
2019-06-01T02:24:01.258Z,75.89
2019-06-01T02:26:31.141Z,75.73
2019-06-01T02:29:02.217Z,75.76
2019-06-01T02:31:41.843Z,75.91
2019-06-01T02:34:06.004Z,76.03
2019-06-01T02:36:34.984Z,76.25
2019-06-01T02:39:09.936Z,76.27
2019-06-01T02:41:40.282Z,76.24
2019-06-01T02:44:09.908Z,76.34
2019-06-01T02:46:39.476Z,76.39
2019-06-01T02:49:09.142Z,76.25
2019-06-01T02:51:38.779Z,76.34
2019-06-01T02:54:08.431Z,76.38
2019-06-01T02:56:38.095Z,76.42
2019-06-01T02:59:07.727Z,76.41
2019-06-01T03:01:38.207Z,76.40
2019-06-01T03:04:09.792Z,76.38
2019-06-01T03:06:42.099Z,76.54
2019-06-01T03:09:12.618Z,76.66
2019-06-01T03:11:42.720Z,76.47
2019-06-01T03:14:12.941Z,76.48
2019-06-01T03:16:43.351Z,76.63
2019-06-01T03:19:16.204Z,76.57
2019-06-01T03:21:47.701Z,76.62
2019-06-01T03:24:19.550Z,76.63
2019-06-01T03:26:49.307Z,76.55
2019-06-01T03:29:20.451Z,76.67
2019-06-01T03:31:50.257Z,76.58
2019-06-01T03:34:19.881Z,76.46
2019-06-01T03:36:49.513Z,76.34
2019-06-01T03:39:19.269Z,76.33
2019-06-01T03:41:49.070Z,76.51
2019-06-01T03:44:18.836Z,76.75
2019-06-01T03:46:48.531Z,76.61
2019-06-01T03:49:18.195Z,76.66
2019-06-01T03:51:47.871Z,76.65
2019-06-01T03:54:17.517Z,76.89
2019-06-01T03:56:47.211Z,76.87
2019-06-01T03:59:16.939Z,76.97
2019-06-01T04:01:47.315Z,76.95
2019-06-01T04:04:17.039Z,77.00
2019-06-01T04:06:46.718Z,77.07
2019-06-01T04:09:16.404Z,77.02
2019-06-01T04:11:46.104Z,77.05
2019-06-01T04:14:15.773Z,77.39
2019-06-01T04:16:45.481Z,77.44
2019-06-01T04:19:15.205Z,77.33
2019-06-01T04:21:44.844Z,77.20
2019-06-01T04:24:14.475Z,77.08
2019-06-01T04:26:44.123Z,76.87
2019-06-01T04:29:13.838Z,76.68
2019-06-01T04:31:43.532Z,76.64
2019-06-01T04:34:13.267Z,76.80
2019-06-01T04:36:42.725Z,76.73
2019-06-01T04:39:13.635Z,76.57
2019-06-01T04:41:43.529Z,76.55
2019-06-01T04:44:14.376Z,76.58
2019-06-01T04:46:44.235Z,76.57
2019-06-01T04:49:14.991Z,76.62
2019-06-01T04:51:44.891Z,76.61
2019-06-01T04:54:16.008Z,76.55
2019-06-01T04:56:45.855Z,76.37
2019-06-01T04:59:15.607Z,76.26
2019-06-01T05:01:45.203Z,76.10
2019-06-01T05:04:15.473Z,76.06
2019-06-01T05:06:45.253Z,75.98
2019-06-01T05:09:15.732Z,75.71
2019-06-01T05:11:45.639Z,75.40
2019-06-01T05:14:16.509Z,75.16
2019-06-01T05:16:47.310Z,74.87
2019-06-01T05:19:17.031Z,74.71
2019-06-01T05:21:46.763Z,74.46
2019-06-01T05:24:17.085Z,74.18
2019-06-01T05:26:46.962Z,73.92
2019-06-01T05:29:18.041Z,73.54
2019-06-01T05:31:49.975Z,73.18
2019-06-01T05:34:19.613Z,72.98
2019-06-01T05:36:49.266Z,72.89
2019-06-01T05:39:18.942Z,72.76
2019-06-01T05:41:48.554Z,72.66
2019-06-01T05:44:19.324Z,72.39
2019-06-01T05:46:49.056Z,72.18
2019-06-01T05:49:18.768Z,72.22
2019-06-01T05:51:49.443Z,72.11
2019-06-01T05:54:19.098Z,72.04
2019-06-01T05:56:49.831Z,71.90
2019-06-01T05:59:19.581Z,71.86
2019-06-01T06:01:49.251Z,71.96
2019-06-01T06:04:19.557Z,71.96
2019-06-01T06:06:49.213Z,71.80
2019-06-01T06:09:19.179Z,71.16
2019-06-01T06:11:48.876Z,70.73
2019-06-01T06:14:20.671Z,70.23
2019-06-01T06:16:49.888Z,69.65
2019-06-01T06:19:22.168Z,69.55
2019-06-01T06:21:50.882Z,69.45
2019-06-01T06:24:20.633Z,69.18
2019-06-01T06:26:50.238Z,68.85
2019-06-01T06:29:20.937Z,68.51
2019-06-01T06:31:50.630Z,67.96
2019-06-01T06:34:21.492Z,67.71
2019-06-01T06:36:52.242Z,67.67
2019-06-01T06:39:22.138Z,67.41
2019-06-01T06:41:51.962Z,67.06
2019-06-01T06:44:22.645Z,66.49
2019-06-01T06:46:52.433Z,65.95
2019-06-01T06:49:23.224Z,65.86
2019-06-01T06:51:53.018Z,65.46
2019-06-01T06:54:23.837Z,65.19
2019-06-01T06:56:53.559Z,64.90
2019-06-01T06:59:24.506Z,64.97
2019-06-01T07:01:55.331Z,64.92
2019-06-01T07:04:25.346Z,64.60
2019-06-01T07:06:55.111Z,64.34
2019-06-01T07:09:24.730Z,64.12
2019-06-01T07:11:54.369Z,63.67
2019-06-01T07:14:24.026Z,63.43
2019-06-01T07:16:53.676Z,63.06
2019-06-01T07:19:23.737Z,62.64
2019-06-01T07:21:54.426Z,62.39
2019-06-01T07:24:24.059Z,61.91
2019-06-01T07:26:53.695Z,61.65
2019-06-01T07:29:24.214Z,61.56
2019-06-01T07:31:53.940Z,61.36
2019-06-01T07:34:36.086Z,61.13
2019-06-01T07:36:54.983Z,60.68
2019-06-01T07:39:24.941Z,60.58
2019-06-01T07:41:54.837Z,60.25
2019-06-01T07:44:25.066Z,59.93
2019-06-01T07:46:54.735Z,59.88
2019-06-01T07:49:25.017Z,59.38
2019-06-01T07:51:55.995Z,59.32
2019-06-01T07:54:26.366Z,59.31
2019-06-01T07:56:56.080Z,59.39
2019-06-01T07:59:26.399Z,59.19
2019-06-01T08:01:56.476Z,58.88
2019-06-01T08:04:28.078Z,58.79
2019-06-01T08:06:57.503Z,58.65
2019-06-01T08:09:27.899Z,58.94
2019-06-01T08:11:57.767Z,59.00
2019-06-01T08:14:28.592Z,59.03
2019-06-01T08:16:58.336Z,58.96
2019-06-01T08:19:28.155Z,58.66
2019-06-01T08:21:58.204Z,58.00
2019-06-01T08:24:28.316Z,58.28
2019-06-01T08:26:58.088Z,58.20
2019-06-01T08:29:28.841Z,58.55
2019-06-01T08:31:58.577Z,58.04
2019-06-01T08:34:28.992Z,57.63
2019-06-01T08:36:58.851Z,57.28
2019-06-01T08:39:29.467Z,55.68
2019-06-01T08:41:59.160Z,54.83
2019-06-01T08:44:29.590Z,54.50
2019-06-01T08:47:00.516Z,54.16
2019-06-01T08:49:31.042Z,54.27
2019-06-01T08:52:01.907Z,54.30
2019-06-01T08:54:32.301Z,54.23
2019-06-01T08:57:02.357Z,54.05
2019-06-01T08:59:32.584Z,53.93
2019-06-01T09:02:02.297Z,53.74
2019-06-01T09:04:32.805Z,53.18
2019-06-01T09:07:03.112Z,51.50
2019-06-01T09:09:33.180Z,50.76
2019-06-01T09:12:02.989Z,50.92
2019-06-01T09:14:33.482Z,50.27
2019-06-01T09:17:03.609Z,50.68
2019-06-01T09:19:33.612Z,50.78
2019-06-01T09:22:03.458Z,48.64
2019-06-01T09:24:33.961Z,48.12
2019-06-01T09:27:03.894Z,47.46
2019-06-01T09:29:34.067Z,45.21
2019-06-01T09:32:03.792Z,45.28
2019-06-01T09:34:34.466Z,45.92
2019-06-01T09:37:04.341Z,45.58
2019-06-01T09:39:35.082Z,44.96
2019-06-01T09:42:04.875Z,44.89
2019-06-01T09:44:35.248Z,43.85
2019-06-01T09:47:06.084Z,43.77
2019-06-01T09:49:35.855Z,44.50
2019-06-01T09:52:05.662Z,44.56
2019-06-01T09:54:36.409Z,44.11
2019-06-01T09:57:06.499Z,44.38
2019-06-01T09:59:36.155Z,43.76
2019-06-01T10:02:05.888Z,43.96
2019-06-01T10:04:36.532Z,42.72
2019-06-01T10:07:06.365Z,41.47
2019-06-01T10:09:36.003Z,40.78
2019-06-01T10:12:05.852Z,39.95
2019-06-01T10:14:36.207Z,39.93
2019-06-01T10:17:05.915Z,39.90
2019-06-01T10:19:36.672Z,40.16
2019-06-01T10:22:06.612Z,40.70
2019-06-01T10:24:37.243Z,40.98
2019-06-01T10:27:06.970Z,39.71
2019-06-01T10:29:36.824Z,39.23
2019-06-01T10:32:06.469Z,38.49
2019-06-01T10:34:36.091Z,37.87
2019-06-01T10:37:05.747Z,36.00
2019-06-01T10:39:35.458Z,36.34
2019-06-01T10:42:05.092Z,36.62
2019-06-01T10:44:38.888Z,37.11
2019-06-01T10:47:06.168Z,37.46
2019-06-01T10:49:36.015Z,37.63
2019-06-01T10:52:05.676Z,37.67
2019-06-01T10:54:36.138Z,37.06
2019-06-01T10:57:05.947Z,36.92
2019-06-01T10:59:36.285Z,36.15
2019-06-01T11:02:06.060Z,36.36
2019-06-01T11:04:37.073Z,35.82
2019-06-01T11:07:06.836Z,33.63
2019-06-01T11:09:36.938Z,33.39
2019-06-01T11:12:06.707Z,32.35
2019-06-01T11:14:37.069Z,31.41
2019-06-01T11:17:06.770Z,31.21
2019-06-01T11:19:37.193Z,31.28
2019-06-01T11:22:06.935Z,31.34
2019-06-01T11:24:37.425Z,31.43
2019-06-01T11:27:08.214Z,30.77
2019-06-01T11:29:46.043Z,30.43
2019-06-01T11:32:09.206Z,30.33
2019-06-01T11:34:40.184Z,30.18
2019-06-01T11:37:14.898Z,30.49
2019-06-01T11:39:42.570Z,29.86
2019-06-01T11:42:12.344Z,30.19
2019-06-01T11:44:42.837Z,30.82
2019-06-01T11:47:12.608Z,30.84
2019-06-01T11:49:42.871Z,29.84
2019-06-01T11:52:13.499Z,30.10
2019-06-01T11:54:43.306Z,29.76
2019-06-01T11:57:14.071Z,29.81
2019-06-01T11:59:43.705Z,30.33
2019-06-01T12:02:13.365Z,30.00
2019-06-01T12:04:44.104Z,30.24
2019-06-01T12:07:17.952Z,30.19
2019-06-01T12:09:46.055Z,29.89
2019-06-01T12:12:15.807Z,30.24
2019-06-01T12:14:46.773Z,30.33
2019-06-01T12:17:16.581Z,30.51
2019-06-01T12:19:46.934Z,30.74
2019-06-01T12:22:16.793Z,30.83
2019-06-01T12:24:47.357Z,30.72
2019-06-01T12:27:17.290Z,31.00
2019-06-01T12:29:48.291Z,31.20
2019-06-01T12:32:18.299Z,31.35
2019-06-01T12:34:48.499Z,31.87
2019-06-01T12:37:36.019Z,31.85
2019-06-01T12:39:54.157Z,31.78
2019-06-01T12:42:22.256Z,31.98
2019-06-01T12:44:52.145Z,31.56
2019-06-01T12:47:21.956Z,31.93
2019-06-01T12:49:52.677Z,32.46
2019-06-01T12:52:22.438Z,32.31
2019-06-01T12:54:53.123Z,32.50
2019-06-01T12:57:23.833Z,32.55
2019-06-01T12:59:53.501Z,32.21
2019-06-01T13:02:23.233Z,32.34
2019-06-01T13:04:53.257Z,32.36
2019-06-01T13:07:22.906Z,32.33
2019-06-01T13:09:53.162Z,32.44
2019-06-01T13:12:22.802Z,32.13
2019-06-01T13:14:52.428Z,31.70
2019-06-01T13:17:22.988Z,31.58
2019-06-01T13:19:52.821Z,31.88
2019-06-01T13:22:22.463Z,31.67
2019-06-01T13:24:52.188Z,31.52
2019-06-01T13:27:21.861Z,31.27
2019-06-01T13:29:52.274Z,30.99
2019-06-01T13:32:23.010Z,30.11
2019-06-01T13:34:53.631Z,30.33
2019-06-01T13:37:23.382Z,30.69
2019-06-01T13:39:57.628Z,30.67
2019-06-01T13:42:24.420Z,30.09
2019-06-01T13:44:54.077Z,29.96
2019-06-01T13:47:23.718Z,30.28
2019-06-01T13:49:54.188Z,29.25
2019-06-01T13:52:23.955Z,28.63
2019-06-01T13:54:54.661Z,28.39
2019-06-01T13:57:24.535Z,28.73
2019-06-01T13:59:55.024Z,28.72
2019-06-01T14:02:24.819Z,29.29
2019-06-01T14:04:54.608Z,29.71
2019-06-01T14:07:24.290Z,30.14
2019-06-01T14:09:55.327Z,30.18
2019-06-01T14:12:25.184Z,29.96
2019-06-01T14:14:55.611Z,30.09
2019-06-01T14:17:25.410Z,30.69
2019-06-01T14:19:55.910Z,31.25
2019-06-01T14:22:25.632Z,31.63
2019-06-01T14:25:11.917Z,32.17
2019-06-01T14:27:27.595Z,32.38
2019-06-01T14:29:57.260Z,32.73
2019-06-01T14:32:27.093Z,33.26
2019-06-01T14:34:57.067Z,33.62
2019-06-01T14:37:26.705Z,34.01
2019-06-01T14:39:57.109Z,34.14
2019-06-01T14:42:26.771Z,33.62
2019-06-01T14:44:56.417Z,33.94
2019-06-01T14:47:26.046Z,34.15
2019-06-01T14:49:55.808Z,34.30
2019-06-01T14:52:25.447Z,34.26
2019-06-01T14:54:55.914Z,34.36
2019-06-01T14:57:25.579Z,34.17
2019-06-01T14:59:56.237Z,34.43
2019-06-01T15:02:25.883Z,34.61
2019-06-01T15:04:56.559Z,34.51
2019-06-01T15:07:26.170Z,34.57
2019-06-01T15:09:56.345Z,34.67
2019-06-01T15:12:27.128Z,34.91
2019-06-01T15:14:57.574Z,34.88
2019-06-01T15:17:27.123Z,34.78
2019-06-01T15:19:58.200Z,34.72
2019-06-01T15:22:27.996Z,34.62
2019-06-01T15:24:58.469Z,35.16
2019-06-01T15:27:28.165Z,35.44
2019-06-01T15:29:58.981Z,35.25
2019-06-01T15:32:28.836Z,35.20
2019-06-01T15:34:59.873Z,35.22
2019-06-01T15:37:29.781Z,35.28
2019-06-01T15:39:59.473Z,35.29
2019-06-01T15:42:29.111Z,35.43
2019-06-01T15:44:59.263Z,35.50
2019-06-01T15:47:30.004Z,35.74
2019-06-01T15:50:00.064Z,36.36
2019-06-01T15:52:29.895Z,36.62
2019-06-01T15:55:00.493Z,36.74
2019-06-01T15:57:30.255Z,36.95
2019-06-01T16:00:00.682Z,36.75
2019-06-01T16:02:30.440Z,37.22
2019-06-01T16:05:01.317Z,37.33
2019-06-01T16:07:31.118Z,37.42
2019-06-01T16:10:06.431Z,37.28
2019-06-01T16:12:32.326Z,37.14
2019-06-01T16:15:02.241Z,36.91
2019-06-01T16:17:32.518Z,36.99
2019-06-01T16:20:02.443Z,36.86
2019-06-01T16:22:33.188Z,37.11
2019-06-01T16:25:02.845Z,37.28
2019-06-01T16:27:32.486Z,37.26
2019-06-01T16:30:03.877Z,37.10
2019-06-01T16:32:33.475Z,37.01
2019-06-01T16:35:03.420Z,37.14
2019-06-01T16:37:33.158Z,37.43
2019-06-01T16:40:08.078Z,37.81
2019-06-01T16:42:34.352Z,37.86
2019-06-01T16:45:07.167Z,38.09
2019-06-01T16:47:36.815Z,38.29
2019-06-01T16:50:10.232Z,38.53
2019-06-01T16:52:39.068Z,38.57
2019-06-01T16:55:10.515Z,38.95
2019-06-01T16:57:41.158Z,39.03
2019-06-01T17:00:12.127Z,39.03
2019-06-01T17:02:41.763Z,38.88
2019-06-01T17:05:12.229Z,38.90
2019-06-01T17:07:41.863Z,39.02
2019-06-01T17:10:24.544Z,39.32
2019-06-01T17:12:43.977Z,39.43
2019-06-01T17:15:14.179Z,39.50
2019-06-01T17:17:43.923Z,39.68
2019-06-01T17:20:39.088Z,39.71
2019-06-01T17:23:24.137Z,39.78
2019-06-01T17:25:41.312Z,39.93
2019-06-01T17:28:11.025Z,39.99
2019-06-01T17:30:40.893Z,40.07
2019-06-01T17:33:10.546Z,40.07
2019-06-01T17:35:41.052Z,40.25
2019-06-01T17:38:12.218Z,40.27
2019-06-01T17:40:43.365Z,40.25
2019-06-01T17:43:13.584Z,40.25
2019-06-01T17:45:43.239Z,40.33
2019-06-01T17:48:25.147Z,40.67
2019-06-01T17:50:44.228Z,40.85
2019-06-01T17:53:13.872Z,41.04
2019-06-01T17:55:43.927Z,41.25
2019-06-01T17:58:13.655Z,41.57
2019-06-01T18:00:43.666Z,41.67
2019-06-01T18:03:13.320Z,42.03
2019-06-01T18:05:44.084Z,42.28
2019-06-01T18:08:13.978Z,42.39
2019-06-01T18:10:53.921Z,42.43
2019-06-01T18:13:15.291Z,42.56
2019-06-01T18:15:44.926Z,42.61
2019-06-01T18:18:14.594Z,42.86
2019-06-01T18:20:44.349Z,43.03
2019-06-01T18:23:13.972Z,43.28
2019-06-01T18:25:43.631Z,43.50
2019-06-01T18:28:19.275Z,43.80
2019-06-01T18:30:45.844Z,44.01
2019-06-01T18:33:15.483Z,44.17
2019-06-01T18:35:45.117Z,44.31
2019-06-01T18:38:14.996Z,44.49
2019-06-01T18:40:44.683Z,44.75
2019-06-01T18:43:17.254Z,44.96
2019-06-01T18:45:48.009Z,45.58
2019-06-01T18:48:18.863Z,45.58
2019-06-01T18:50:48.647Z,45.69
2019-06-01T18:53:18.504Z,45.93
2019-06-01T18:55:48.159Z,46.00
2019-06-01T18:58:17.789Z,46.17
2019-06-01T19:00:47.555Z,46.33
2019-06-01T19:03:17.188Z,46.53
2019-06-01T19:05:46.828Z,46.66
2019-06-01T19:08:16.524Z,46.75
2019-06-01T19:10:48.202Z,46.95
2019-06-01T19:13:18.604Z,47.34
2019-06-01T19:15:48.241Z,47.75
2019-06-01T19:18:17.922Z,47.87
2019-06-01T19:20:47.651Z,48.09
2019-06-01T19:23:21.785Z,48.44
2019-06-01T19:25:48.659Z,48.63
2019-06-01T19:28:18.362Z,48.92
2019-06-01T19:30:48.065Z,49.16
2019-06-01T19:33:19.506Z,49.44
2019-06-01T19:35:49.705Z,49.64
2019-06-01T19:38:19.984Z,49.80
2019-06-01T19:40:49.724Z,49.84
2019-06-01T19:43:19.590Z,50.01
2019-06-01T19:45:49.245Z,50.17
2019-06-01T19:48:19.179Z,50.54
2019-06-01T19:50:49.007Z,50.71
2019-06-01T19:53:18.969Z,50.82
2019-06-01T19:55:48.654Z,51.12
2019-06-01T19:58:19.082Z,51.36
2019-06-01T20:00:49.484Z,51.47
2019-06-01T20:03:22.009Z,51.77
2019-06-01T20:05:51.488Z,51.87
2019-06-01T20:08:22.490Z,51.97
2019-06-01T20:10:53.354Z,52.40
2019-06-01T20:13:24.001Z,52.49
2019-06-01T20:15:53.927Z,52.93
2019-06-01T20:18:23.573Z,53.32
2019-06-01T20:20:53.217Z,53.68
2019-06-01T20:23:22.870Z,54.04
2019-06-01T20:25:52.509Z,54.22
2019-06-01T20:28:22.238Z,54.33
2019-06-01T20:30:51.996Z,54.27
2019-06-01T20:33:22.579Z,54.50
2019-06-01T20:35:52.452Z,54.83
2019-06-01T20:38:23.522Z,55.02
2019-06-01T20:40:53.197Z,55.05
2019-06-01T20:43:23.003Z,55.31
2019-06-01T20:45:56.565Z,55.68
2019-06-01T20:48:24.098Z,55.80
2019-06-01T20:50:53.769Z,55.99
2019-06-01T20:53:23.504Z,56.16
2019-06-01T20:55:53.236Z,56.46
2019-06-01T20:58:23.826Z,56.55
2019-06-01T21:00:54.433Z,56.80
2019-06-01T21:03:24.398Z,57.02
2019-06-01T21:05:54.197Z,57.20
2019-06-01T21:08:24.271Z,57.14
2019-06-01T21:10:54.092Z,57.18
2019-06-01T21:13:24.164Z,57.19
2019-06-01T21:15:53.969Z,57.43
2019-06-01T21:18:23.915Z,57.32
2019-06-01T21:20:54.732Z,57.24
2019-06-01T21:23:25.235Z,57.24
2019-06-01T21:25:55.563Z,57.21
2019-06-01T21:28:25.706Z,57.18
2019-06-01T21:30:55.627Z,57.12
2019-06-01T21:33:28.184Z,57.13
2019-06-01T21:35:56.611Z,57.13
2019-06-01T21:38:26.253Z,57.10
2019-06-01T21:40:55.886Z,57.06
2019-06-01T21:43:34.529Z,57.21
2019-06-01T21:45:56.876Z,57.08
2019-06-01T21:48:26.531Z,57.27
2019-06-01T21:50:56.176Z,57.36
2019-06-01T21:53:26.643Z,57.44
2019-06-01T21:55:56.450Z,57.48
2019-06-01T21:58:26.695Z,57.71
2019-06-01T22:00:56.937Z,57.60
2019-06-01T22:03:27.274Z,57.54
2019-06-01T22:05:57.203Z,57.56
2019-06-01T22:08:27.508Z,57.61
2019-06-01T22:10:57.444Z,57.89
2019-06-01T22:13:28.622Z,58.09
2019-06-01T22:15:58.604Z,57.99
2019-06-01T22:18:28.270Z,58.15
2019-06-01T22:20:57.895Z,58.09
2019-06-01T22:23:28.200Z,58.09
2019-06-01T22:25:57.958Z,58.17
2019-06-01T22:28:28.812Z,58.16
2019-06-01T22:30:58.726Z,58.07
2019-06-01T22:33:28.801Z,58.03
2019-06-01T22:35:58.639Z,58.19
2019-06-01T22:38:28.262Z,58.16
2019-06-01T22:40:57.895Z,58.13
2019-06-01T22:43:42.196Z,58.19
2019-06-01T22:45:59.891Z,58.31
2019-06-01T22:48:29.539Z,58.59
2019-06-01T22:50:59.177Z,58.79
2019-06-01T22:53:28.927Z,59.02
2019-06-01T22:55:59.585Z,59.24
2019-06-01T22:58:29.626Z,59.60
2019-06-01T23:00:59.454Z,59.62
2019-06-01T23:03:30.221Z,59.87
2019-06-01T23:06:00.024Z,60.12
2019-06-01T23:08:29.659Z,60.23
2019-06-01T23:10:59.321Z,60.29
2019-06-01T23:13:30.223Z,60.43
2019-06-01T23:16:00.004Z,60.61
2019-06-01T23:18:29.911Z,61.00
2019-06-01T23:20:59.599Z,61.20
2019-06-01T23:23:30.174Z,61.39
2019-06-01T23:25:59.864Z,61.39
2019-06-01T23:28:30.434Z,61.31
2019-06-01T23:31:01.133Z,61.40
2019-06-01T23:33:31.036Z,61.38
2019-06-01T23:36:01.703Z,61.34
2019-06-01T23:38:32.577Z,61.33
2019-06-01T23:41:02.528Z,61.40
2019-06-01T23:43:32.940Z,61.41
2019-06-01T23:46:02.634Z,61.41
2019-06-01T23:48:34.142Z,61.41
2019-06-01T23:51:03.625Z,61.46
2019-06-01T23:53:33.827Z,61.65
2019-06-01T23:56:03.601Z,61.84
2019-06-01T23:58:34.546Z,61.98
